sensor_id;sensor_type;location;lat;lon;timestamp;P1;durP1;ratioP1;P2;durP2;ratioP2
20375;SDS011;10347;51.828;6.466;2023-04-28T00:00:56;3.60;;;3.30;;
20375;SDS011;10347;51.828;6.466;2023-04-28T00:03:21;4.13;;;3.53;;
20375;SDS011;10347;51.828;6.466;2023-04-28T00:05:47;3.60;;;3.30;;
20375;SDS011;10347;51.828;6.466;2023-04-28T00:08:13;5.80;;;4.05;;
20375;SDS011;10347;51.828;6.466;2023-04-28T00:10:39;5.35;;;3.58;;
20375;SDS011;10347;51.828;6.466;2023-04-28T00:13:04;3.30;;;3.03;;
20375;SDS011;10347;51.828;6.466;2023-04-28T00:15:30;5.10;;;3.42;;
20375;SDS011;10347;51.828;6.466;2023-04-28T00:17:56;3.33;;;3.03;;
20375;SDS011;10347;51.828;6.466;2023-04-28T00:20:21;3.72;;;3.38;;
20375;SDS011;10347;51.828;6.466;2023-04-28T00:22:47;3.63;;;3.33;;
20375;SDS011;10347;51.828;6.466;2023-04-28T00:25:14;3.10;;;2.83;;
20375;SDS011;10347;51.828;6.466;2023-04-28T00:27:39;4.45;;;3.08;;
20375;SDS011;10347;51.828;6.466;2023-04-28T00:30:05;4.80;;;3.30;;
20375;SDS011;10347;51.828;6.466;2023-04-28T00:32:31;7.32;;;3.45;;
20375;SDS011;10347;51.828;6.466;2023-04-28T00:34:57;4.00;;;3.10;;
20375;SDS011;10347;51.828;6.466;2023-04-28T00:37:22;3.28;;;2.97;;
20375;SDS011;10347;51.828;6.466;2023-04-28T00:39:48;4.55;;;3.42;;
20375;SDS011;10347;51.828;6.466;2023-04-28T00:42:19;4.15;;;3.22;;
20375;SDS011;10347;51.828;6.466;2023-04-28T00:44:45;3.53;;;3.22;;
20375;SDS011;10347;51.828;6.466;2023-04-28T00:47:10;3.72;;;3.35;;
20375;SDS011;10347;51.828;6.466;2023-04-28T00:49:37;4.18;;;3.70;;
20375;SDS011;10347;51.828;6.466;2023-04-28T00:52:05;6.07;;;3.65;;
20375;SDS011;10347;51.828;6.466;2023-04-28T00:54:34;5.38;;;3.47;;
20375;SDS011;10347;51.828;6.466;2023-04-28T00:57:00;4.10;;;3.05;;
20375;SDS011;10347;51.828;6.466;2023-04-28T00:59:29;5.32;;;3.45;;
20375;SDS011;10347;51.828;6.466;2023-04-28T01:01:55;3.78;;;3.42;;
20375;SDS011;10347;51.828;6.466;2023-04-28T01:04:21;4.20;;;3.70;;
20375;SDS011;10347;51.828;6.466;2023-04-28T01:06:50;5.78;;;3.92;;
20375;SDS011;10347;51.828;6.466;2023-04-28T01:09:17;3.72;;;3.42;;
20375;SDS011;10347;51.828;6.466;2023-04-28T01:11:43;4.38;;;3.40;;
20375;SDS011;10347;51.828;6.466;2023-04-28T01:14:08;4.72;;;3.30;;
20375;SDS011;10347;51.828;6.466;2023-04-28T01:16:34;3.85;;;3.38;;
20375;SDS011;10347;51.828;6.466;2023-04-28T01:19:01;4.55;;;3.70;;
20375;SDS011;10347;51.828;6.466;2023-04-28T01:21:31;4.93;;;3.58;;
20375;SDS011;10347;51.828;6.466;2023-04-28T01:23:58;4.55;;;3.35;;
20375;SDS011;10347;51.828;6.466;2023-04-28T01:26:24;3.25;;;2.95;;
20375;SDS011;10347;51.828;6.466;2023-04-28T01:28:50;4.68;;;3.13;;
20375;SDS011;10347;51.828;6.466;2023-04-28T01:31:15;4.70;;;3.17;;
20375;SDS011;10347;51.828;6.466;2023-04-28T01:33:41;3.58;;;3.00;;
20375;SDS011;10347;51.828;6.466;2023-04-28T01:36:07;4.00;;;3.30;;
20375;SDS011;10347;51.828;6.466;2023-04-28T01:38:32;5.45;;;3.30;;
20375;SDS011;10347;51.828;6.466;2023-04-28T01:40:58;3.78;;;3.47;;
20375;SDS011;10347;51.828;6.466;2023-04-28T01:43:24;7.03;;;3.78;;
20375;SDS011;10347;51.828;6.466;2023-04-28T01:45:50;4.10;;;3.70;;
20375;SDS011;10347;51.828;6.466;2023-04-28T01:48:15;3.72;;;3.35;;
20375;SDS011;10347;51.828;6.466;2023-04-28T01:50:41;3.88;;;3.17;;
20375;SDS011;10347;51.828;6.466;2023-04-28T01:53:07;4.63;;;3.67;;
20375;SDS011;10347;51.828;6.466;2023-04-28T01:55:32;3.67;;;3.28;;
20375;SDS011;10347;51.828;6.466;2023-04-28T01:57:58;5.35;;;3.83;;
20375;SDS011;10347;51.828;6.466;2023-04-28T02:00:23;4.05;;;3.70;;
20375;SDS011;10347;51.828;6.466;2023-04-28T02:02:49;6.43;;;4.10;;
20375;SDS011;10347;51.828;6.466;2023-04-28T02:05:15;3.88;;;3.30;;
20375;SDS011;10347;51.828;6.466;2023-04-28T02:07:40;3.50;;;3.22;;
20375;SDS011;10347;51.828;6.466;2023-04-28T02:10:06;4.35;;;3.67;;
20375;SDS011;10347;51.828;6.466;2023-04-28T02:12:32;4.28;;;3.85;;
20375;SDS011;10347;51.828;6.466;2023-04-28T02:14:58;4.85;;;3.83;;
20375;SDS011;10347;51.828;6.466;2023-04-28T02:17:24;4.78;;;3.75;;
20375;SDS011;10347;51.828;6.466;2023-04-28T02:19:54;3.80;;;3.50;;
20375;SDS011;10347;51.828;6.466;2023-04-28T02:22:23;3.40;;;3.20;;
20375;SDS011;10347;51.828;6.466;2023-04-28T02:24:49;3.78;;;3.47;;
20375;SDS011;10347;51.828;6.466;2023-04-28T02:27:15;3.97;;;3.58;;
20375;SDS011;10347;51.828;6.466;2023-04-28T02:29:41;4.60;;;3.13;;
20375;SDS011;10347;51.828;6.466;2023-04-28T02:32:07;4.93;;;4.05;;
20375;SDS011;10347;51.828;6.466;2023-04-28T02:34:32;4.15;;;3.75;;
20375;SDS011;10347;51.828;6.466;2023-04-28T02:36:58;4.43;;;3.78;;
20375;SDS011;10347;51.828;6.466;2023-04-28T02:39:24;3.72;;;3.40;;
20375;SDS011;10347;51.828;6.466;2023-04-28T02:41:54;4.13;;;3.72;;
20375;SDS011;10347;51.828;6.466;2023-04-28T02:44:20;4.38;;;3.80;;
20375;SDS011;10347;51.828;6.466;2023-04-28T02:46:45;3.78;;;3.50;;
20375;SDS011;10347;51.828;6.466;2023-04-28T02:49:11;4.13;;;3.50;;
20375;SDS011;10347;51.828;6.466;2023-04-28T02:51:37;3.95;;;3.47;;
20375;SDS011;10347;51.828;6.466;2023-04-28T02:54:03;5.25;;;4.22;;
20375;SDS011;10347;51.828;6.466;2023-04-28T02:56:29;4.40;;;3.63;;
20375;SDS011;10347;51.828;6.466;2023-04-28T02:58:54;4.53;;;4.10;;
20375;SDS011;10347;51.828;6.466;2023-04-28T03:01:20;5.63;;;4.50;;
20375;SDS011;10347;51.828;6.466;2023-04-28T03:03:46;5.22;;;3.78;;
20375;SDS011;10347;51.828;6.466;2023-04-28T03:06:11;4.43;;;4.03;;
20375;SDS011;10347;51.828;6.466;2023-04-28T03:08:37;6.43;;;4.18;;
20375;SDS011;10347;51.828;6.466;2023-04-28T03:11:02;4.70;;;4.25;;
20375;SDS011;10347;51.828;6.466;2023-04-28T03:13:29;6.22;;;4.78;;
20375;SDS011;10347;51.828;6.466;2023-04-28T03:15:54;5.05;;;4.55;;
20375;SDS011;10347;51.828;6.466;2023-04-28T03:18:20;5.63;;;4.78;;
20375;SDS011;10347;51.828;6.466;2023-04-28T03:20:46;7.60;;;5.30;;
20375;SDS011;10347;51.828;6.466;2023-04-28T03:23:12;9.13;;;4.95;;
20375;SDS011;10347;51.828;6.466;2023-04-28T03:25:38;6.43;;;5.60;;
20375;SDS011;10347;51.828;6.466;2023-04-28T03:28:03;8.88;;;5.50;;
20375;SDS011;10347;51.828;6.466;2023-04-28T03:30:29;9.95;;;5.47;;
20375;SDS011;10347;51.828;6.466;2023-04-28T03:32:54;7.30;;;5.10;;
20375;SDS011;10347;51.828;6.466;2023-04-28T03:35:20;8.70;;;5.30;;
20375;SDS011;10347;51.828;6.466;2023-04-28T03:37:45;9.05;;;5.90;;
20375;SDS011;10347;51.828;6.466;2023-04-28T03:40:11;9.88;;;6.65;;
20375;SDS011;10347;51.828;6.466;2023-04-28T03:42:37;5.82;;;5.25;;
20375;SDS011;10347;51.828;6.466;2023-04-28T03:45:02;6.40;;;5.10;;
20375;SDS011;10347;51.828;6.466;2023-04-28T03:47:28;7.88;;;5.80;;
20375;SDS011;10347;51.828;6.466;2023-04-28T03:49:54;6.47;;;5.03;;
20375;SDS011;10347;51.828;6.466;2023-04-28T03:52:20;6.05;;;5.35;;
20375;SDS011;10347;51.828;6.466;2023-04-28T03:54:46;6.15;;;4.95;;
20375;SDS011;10347;51.828;6.466;2023-04-28T03:57:11;8.52;;;5.53;;
20375;SDS011;10347;51.828;6.466;2023-04-28T03:59:37;5.00;;;4.50;;
20375;SDS011;10347;51.828;6.466;2023-04-28T04:02:02;5.75;;;4.88;;
20375;SDS011;10347;51.828;6.466;2023-04-28T04:04:28;7.10;;;4.93;;
20375;SDS011;10347;51.828;6.466;2023-04-28T04:06:54;7.47;;;5.80;;
20375;SDS011;10347;51.828;6.466;2023-04-28T04:09:19;9.02;;;6.43;;
20375;SDS011;10347;51.828;6.466;2023-04-28T04:11:45;6.32;;;5.43;;
20375;SDS011;10347;51.828;6.466;2023-04-28T04:14:10;6.93;;;4.78;;
20375;SDS011;10347;51.828;6.466;2023-04-28T04:16:36;5.25;;;4.72;;
20375;SDS011;10347;51.828;6.466;2023-04-28T04:19:01;6.82;;;5.32;;
20375;SDS011;10347;51.828;6.466;2023-04-28T04:21:27;7.90;;;5.60;;
20375;SDS011;10347;51.828;6.466;2023-04-28T04:23:53;7.95;;;5.45;;
20375;SDS011;10347;51.828;6.466;2023-04-28T04:26:18;5.10;;;4.60;;
20375;SDS011;10347;51.828;6.466;2023-04-28T04:28:44;7.28;;;5.00;;
20375;SDS011;10347;51.828;6.466;2023-04-28T04:31:10;6.25;;;4.68;;
20375;SDS011;10347;51.828;6.466;2023-04-28T04:33:36;7.28;;;4.75;;
20375;SDS011;10347;51.828;6.466;2023-04-28T04:36:02;5.97;;;5.32;;
20375;SDS011;10347;51.828;6.466;2023-04-28T04:38:28;9.05;;;5.47;;
20375;SDS011;10347;51.828;6.466;2023-04-28T04:40:55;6.43;;;5.60;;
20375;SDS011;10347;51.828;6.466;2023-04-28T04:43:21;10.35;;;5.43;;
20375;SDS011;10347;51.828;6.466;2023-04-28T04:45:46;7.72;;;5.50;;
20375;SDS011;10347;51.828;6.466;2023-04-28T04:48:12;9.63;;;6.30;;
20375;SDS011;10347;51.828;6.466;2023-04-28T04:50:38;6.40;;;5.78;;
20375;SDS011;10347;51.828;6.466;2023-04-28T04:53:05;7.13;;;5.65;;
20375;SDS011;10347;51.828;6.466;2023-04-28T04:55:30;9.32;;;6.65;;
20375;SDS011;10347;51.828;6.466;2023-04-28T04:57:56;10.77;;;6.10;;
20375;SDS011;10347;51.828;6.466;2023-04-28T05:00:21;8.90;;;6.28;;
20375;SDS011;10347;51.828;6.466;2023-04-28T05:02:47;10.90;;;6.15;;
20375;SDS011;10347;51.828;6.466;2023-04-28T05:05:12;7.38;;;6.00;;
20375;SDS011;10347;51.828;6.466;2023-04-28T05:07:38;9.25;;;6.47;;
20375;SDS011;10347;51.828;6.466;2023-04-28T05:10:04;8.07;;;6.22;;
20375;SDS011;10347;51.828;6.466;2023-04-28T05:12:31;8.25;;;6.65;;
20375;SDS011;10347;51.828;6.466;2023-04-28T05:14:56;10.13;;;7.30;;
20375;SDS011;10347;51.828;6.466;2023-04-28T05:17:22;8.85;;;6.18;;
20375;SDS011;10347;51.828;6.466;2023-04-28T05:19:48;9.05;;;6.47;;
20375;SDS011;10347;51.828;6.466;2023-04-28T05:22:14;8.88;;;6.93;;
20375;SDS011;10347;51.828;6.466;2023-04-28T05:24:39;8.70;;;6.43;;
20375;SDS011;10347;51.828;6.466;2023-04-28T05:27:05;8.20;;;6.68;;
20375;SDS011;10347;51.828;6.466;2023-04-28T05:29:31;7.85;;;6.10;;
20375;SDS011;10347;51.828;6.466;2023-04-28T05:31:56;10.38;;;6.88;;
20375;SDS011;10347;51.828;6.466;2023-04-28T05:34:22;8.40;;;6.45;;
20375;SDS011;10347;51.828;6.466;2023-04-28T05:36:48;11.20;;;7.53;;
20375;SDS011;10347;51.828;6.466;2023-04-28T05:39:13;9.63;;;6.93;;
20375;SDS011;10347;51.828;6.466;2023-04-28T05:41:39;8.20;;;6.45;;
20375;SDS011;10347;51.828;6.466;2023-04-28T05:44:04;9.32;;;7.18;;
20375;SDS011;10347;51.828;6.466;2023-04-28T05:46:30;10.35;;;7.40;;
20375;SDS011;10347;51.828;6.466;2023-04-28T05:48:56;11.63;;;8.07;;
20375;SDS011;10347;51.828;6.466;2023-04-28T05:51:21;9.98;;;7.47;;
20375;SDS011;10347;51.828;6.466;2023-04-28T05:53:47;9.10;;;7.43;;
20375;SDS011;10347;51.828;6.466;2023-04-28T05:56:13;10.27;;;8.27;;
20375;SDS011;10347;51.828;6.466;2023-04-28T05:58:40;12.23;;;7.35;;
20375;SDS011;10347;51.828;6.466;2023-04-28T06:01:06;8.60;;;6.57;;
20375;SDS011;10347;51.828;6.466;2023-04-28T06:03:32;13.27;;;8.57;;
20375;SDS011;10347;51.828;6.466;2023-04-28T06:05:57;11.07;;;7.60;;
20375;SDS011;10347;51.828;6.466;2023-04-28T06:08:23;9.30;;;7.55;;
20375;SDS011;10347;51.828;6.466;2023-04-28T06:10:48;12.40;;;7.90;;
20375;SDS011;10347;51.828;6.466;2023-04-28T06:13:14;9.00;;;7.28;;
20375;SDS011;10347;51.828;6.466;2023-04-28T06:15:40;9.98;;;7.13;;
20375;SDS011;10347;51.828;6.466;2023-04-28T06:18:05;10.75;;;7.45;;
20375;SDS011;10347;51.828;6.466;2023-04-28T06:20:33;9.48;;;7.43;;
20375;SDS011;10347;51.828;6.466;2023-04-28T06:22:59;12.63;;;7.45;;
20375;SDS011;10347;51.828;6.466;2023-04-28T06:25:25;8.70;;;6.72;;
20375;SDS011;10347;51.828;6.466;2023-04-28T06:27:50;9.65;;;7.47;;
20375;SDS011;10347;51.828;6.466;2023-04-28T06:30:17;12.48;;;8.10;;
20375;SDS011;10347;51.828;6.466;2023-04-28T06:32:45;14.57;;;7.70;;
20375;SDS011;10347;51.828;6.466;2023-04-28T06:35:11;10.20;;;7.10;;
20375;SDS011;10347;51.828;6.466;2023-04-28T06:37:37;13.80;;;8.05;;
20375;SDS011;10347;51.828;6.466;2023-04-28T06:40:03;12.07;;;8.20;;
20375;SDS011;10347;51.828;6.466;2023-04-28T06:42:28;14.07;;;8.32;;
20375;SDS011;10347;51.828;6.466;2023-04-28T06:44:54;9.38;;;6.78;;
20375;SDS011;10347;51.828;6.466;2023-04-28T06:47:20;9.10;;;6.47;;
20375;SDS011;10347;51.828;6.466;2023-04-28T06:49:45;14.57;;;8.93;;
20375;SDS011;10347;51.828;6.466;2023-04-28T06:52:14;10.45;;;7.53;;
20375;SDS011;10347;51.828;6.466;2023-04-28T06:54:39;9.43;;;7.18;;
20375;SDS011;10347;51.828;6.466;2023-04-28T06:57:05;9.20;;;7.25;;
20375;SDS011;10347;51.828;6.466;2023-04-28T06:59:31;9.30;;;7.60;;
20375;SDS011;10347;51.828;6.466;2023-04-28T07:01:56;11.48;;;8.32;;
20375;SDS011;10347;51.828;6.466;2023-04-28T07:04:22;8.85;;;7.32;;
20375;SDS011;10347;51.828;6.466;2023-04-28T07:06:47;12.85;;;8.77;;
20375;SDS011;10347;51.828;6.466;2023-04-28T07:09:13;11.93;;;7.82;;
20375;SDS011;10347;51.828;6.466;2023-04-28T07:11:39;11.60;;;7.80;;
20375;SDS011;10347;51.828;6.466;2023-04-28T07:14:05;14.27;;;8.80;;
20375;SDS011;10347;51.828;6.466;2023-04-28T07:16:32;10.38;;;8.05;;
20375;SDS011;10347;51.828;6.466;2023-04-28T07:18:57;11.77;;;7.82;;
20375;SDS011;10347;51.828;6.466;2023-04-28T07:21:23;15.00;;;9.40;;
20375;SDS011;10347;51.828;6.466;2023-04-28T07:23:49;14.05;;;9.70;;
20375;SDS011;10347;51.828;6.466;2023-04-28T07:26:14;14.23;;;8.70;;
20375;SDS011;10347;51.828;6.466;2023-04-28T07:28:40;10.57;;;7.95;;
20375;SDS011;10347;51.828;6.466;2023-04-28T07:31:06;12.45;;;8.77;;
20375;SDS011;10347;51.828;6.466;2023-04-28T07:33:32;13.27;;;8.57;;
20375;SDS011;10347;51.828;6.466;2023-04-28T07:35:58;12.13;;;8.18;;
20375;SDS011;10347;51.828;6.466;2023-04-28T07:38:24;10.25;;;7.85;;
20375;SDS011;10347;51.828;6.466;2023-04-28T07:40:50;13.75;;;9.00;;
20375;SDS011;10347;51.828;6.466;2023-04-28T07:43:15;11.18;;;8.02;;
20375;SDS011;10347;51.828;6.466;2023-04-28T07:45:41;10.80;;;7.50;;
20375;SDS011;10347;51.828;6.466;2023-04-28T07:48:09;15.20;;;9.15;;
20375;SDS011;10347;51.828;6.466;2023-04-28T07:50:35;11.05;;;8.30;;
20375;SDS011;10347;51.828;6.466;2023-04-28T07:53:00;12.07;;;8.63;;
20375;SDS011;10347;51.828;6.466;2023-04-28T07:55:26;13.15;;;8.15;;
20375;SDS011;10347;51.828;6.466;2023-04-28T07:57:51;13.57;;;9.38;;
20375;SDS011;10347;51.828;6.466;2023-04-28T08:00:17;12.65;;;8.88;;
20375;SDS011;10347;51.828;6.466;2023-04-28T08:02:43;11.38;;;7.82;;
20375;SDS011;10347;51.828;6.466;2023-04-28T08:05:08;9.43;;;7.70;;
20375;SDS011;10347;51.828;6.466;2023-04-28T08:07:34;13.55;;;10.07;;
20375;SDS011;10347;51.828;6.466;2023-04-28T08:10:01;11.55;;;8.25;;
20375;SDS011;10347;51.828;6.466;2023-04-28T08:12:27;11.57;;;7.72;;
20375;SDS011;10347;51.828;6.466;2023-04-28T08:14:53;14.45;;;7.78;;
20375;SDS011;10347;51.828;6.466;2023-04-28T08:17:19;9.75;;;7.38;;
20375;SDS011;10347;51.828;6.466;2023-04-28T08:19:46;11.90;;;8.10;;
20375;SDS011;10347;51.828;6.466;2023-04-28T08:22:11;11.98;;;8.60;;
20375;SDS011;10347;51.828;6.466;2023-04-28T08:24:37;12.35;;;8.18;;
20375;SDS011;10347;51.828;6.466;2023-04-28T08:27:03;10.20;;;7.40;;
20375;SDS011;10347;51.828;6.466;2023-04-28T08:29:29;10.25;;;7.03;;
20375;SDS011;10347;51.828;6.466;2023-04-28T08:31:55;9.38;;;7.20;;
20375;SDS011;10347;51.828;6.466;2023-04-28T08:34:21;16.80;;;9.13;;
20375;SDS011;10347;51.828;6.466;2023-04-28T08:36:47;13.30;;;8.63;;
20375;SDS011;10347;51.828;6.466;2023-04-28T08:39:13;16.17;;;9.77;;
20375;SDS011;10347;51.828;6.466;2023-04-28T08:41:38;12.43;;;8.05;;
20375;SDS011;10347;51.828;6.466;2023-04-28T08:44:06;13.18;;;8.93;;
20375;SDS011;10347;51.828;6.466;2023-04-28T08:46:33;9.40;;;7.85;;
20375;SDS011;10347;51.828;6.466;2023-04-28T08:49:00;14.65;;;7.90;;
20375;SDS011;10347;51.828;6.466;2023-04-28T08:51:34;9.82;;;7.70;;
20375;SDS011;10347;51.828;6.466;2023-04-28T08:54:08;13.05;;;8.60;;
20375;SDS011;10347;51.828;6.466;2023-04-28T08:56:35;12.98;;;8.50;;
20375;SDS011;10347;51.828;6.466;2023-04-28T08:59:03;13.30;;;8.80;;
20375;SDS011;10347;51.828;6.466;2023-04-28T09:01:29;20.13;;;9.38;;
20375;SDS011;10347;51.828;6.466;2023-04-28T09:03:55;12.13;;;8.63;;
20375;SDS011;10347;51.828;6.466;2023-04-28T09:06:21;12.20;;;9.05;;
20375;SDS011;10347;51.828;6.466;2023-04-28T09:08:47;15.55;;;10.30;;
20375;SDS011;10347;51.828;6.466;2023-04-28T09:11:13;16.65;;;9.57;;
20375;SDS011;10347;51.828;6.466;2023-04-28T09:13:40;13.82;;;9.75;;
20375;SDS011;10347;51.828;6.466;2023-04-28T09:16:06;13.70;;;9.00;;
20375;SDS011;10347;51.828;6.466;2023-04-28T09:18:31;11.48;;;8.25;;
20375;SDS011;10347;51.828;6.466;2023-04-28T09:21:07;16.55;;;9.10;;
20375;SDS011;10347;51.828;6.466;2023-04-28T09:23:34;12.82;;;7.72;;
20375;SDS011;10347;51.828;6.466;2023-04-28T09:26:16;8.43;;;7.00;;
20375;SDS011;10347;51.828;6.466;2023-04-28T09:28:42;10.60;;;7.20;;
20375;SDS011;10347;51.828;6.466;2023-04-28T09:31:28;10.68;;;7.43;;
20375;SDS011;10347;51.828;6.466;2023-04-28T09:33:56;8.40;;;6.53;;
20375;SDS011;10347;51.828;6.466;2023-04-28T09:36:26;11.65;;;7.20;;
20375;SDS011;10347;51.828;6.466;2023-04-28T09:38:58;8.48;;;6.50;;
20375;SDS011;10347;51.828;6.466;2023-04-28T09:41:37;11.52;;;8.13;;
20375;SDS011;10347;51.828;6.466;2023-04-28T09:44:17;11.75;;;7.20;;
20375;SDS011;10347;51.828;6.466;2023-04-28T09:46:45;11.85;;;7.60;;
20375;SDS011;10347;51.828;6.466;2023-04-28T09:49:12;9.68;;;7.20;;
20375;SDS011;10347;51.828;6.466;2023-04-28T09:51:38;9.50;;;7.00;;
20375;SDS011;10347;51.828;6.466;2023-04-28T09:54:04;13.38;;;7.72;;
20375;SDS011;10347;51.828;6.466;2023-04-28T09:56:31;11.27;;;7.28;;
20375;SDS011;10347;51.828;6.466;2023-04-28T09:58:59;8.73;;;7.35;;
20375;SDS011;10347;51.828;6.466;2023-04-28T10:01:39;11.55;;;7.63;;
20375;SDS011;10347;51.828;6.466;2023-04-28T10:04:05;10.20;;;7.75;;
20375;SDS011;10347;51.828;6.466;2023-04-28T10:06:34;8.98;;;6.75;;
20375;SDS011;10347;51.828;6.466;2023-04-28T10:09:00;10.68;;;7.43;;
20375;SDS011;10347;51.828;6.466;2023-04-28T10:11:26;7.90;;;6.88;;
20375;SDS011;10347;51.828;6.466;2023-04-28T10:13:53;7.32;;;6.63;;
20375;SDS011;10347;51.828;6.466;2023-04-28T10:16:19;9.55;;;6.90;;
20375;SDS011;10347;51.828;6.466;2023-04-28T10:18:45;12.32;;;7.32;;
20375;SDS011;10347;51.828;6.466;2023-04-28T10:21:11;10.65;;;7.22;;
20375;SDS011;10347;51.828;6.466;2023-04-28T10:26:22;7.38;;;6.57;;
20375;SDS011;10347;51.828;6.466;2023-04-28T10:29:00;9.85;;;7.10;;
20375;SDS011;10347;51.828;6.466;2023-04-28T10:31:26;8.10;;;7.05;;
20375;SDS011;10347;51.828;6.466;2023-04-28T10:33:52;9.38;;;6.68;;
20375;SDS011;10347;51.828;6.466;2023-04-28T10:39:11;9.18;;;7.50;;
20375;SDS011;10347;51.828;6.466;2023-04-28T10:41:37;11.45;;;8.30;;
20375;SDS011;10347;51.828;6.466;2023-04-28T10:47:14;9.10;;;7.82;;
20375;SDS011;10347;51.828;6.466;2023-04-28T10:50:21;7.80;;;7.00;;
20375;SDS011;10347;51.828;6.466;2023-04-28T10:52:46;8.40;;;6.65;;
20375;SDS011;10347;51.828;6.466;2023-04-28T11:00:44;9.98;;;7.95;;
20375;SDS011;10347;51.828;6.466;2023-04-28T11:11:36;11.13;;;7.93;;
20375;SDS011;10347;51.828;6.466;2023-04-28T11:16:48;12.98;;;8.45;;
20375;SDS011;10347;51.828;6.466;2023-04-28T11:19:24;11.30;;;8.73;;
20375;SDS011;10347;51.828;6.466;2023-04-28T11:21:53;11.80;;;9.02;;
20375;SDS011;10347;51.828;6.466;2023-04-28T11:24:20;11.93;;;7.93;;
20375;SDS011;10347;51.828;6.466;2023-04-28T11:26:46;10.80;;;8.10;;
20375;SDS011;10347;51.828;6.466;2023-04-28T11:29:12;13.20;;;8.10;;
20375;SDS011;10347;51.828;6.466;2023-04-28T11:31:39;10.88;;;8.20;;
20375;SDS011;10347;51.828;6.466;2023-04-28T11:34:07;11.85;;;9.15;;
20375;SDS011;10347;51.828;6.466;2023-04-28T11:36:41;10.25;;;7.97;;
20375;SDS011;10347;51.828;6.466;2023-04-28T11:39:10;10.07;;;8.60;;
20375;SDS011;10347;51.828;6.466;2023-04-28T11:41:40;9.15;;;7.57;;
20375;SDS011;10347;51.828;6.466;2023-04-28T11:44:10;12.48;;;8.60;;
20375;SDS011;10347;51.828;6.466;2023-04-28T11:46:49;11.82;;;8.38;;
20375;SDS011;10347;51.828;6.466;2023-04-28T11:49:19;10.27;;;8.05;;
20375;SDS011;10347;51.828;6.466;2023-04-28T11:51:48;9.30;;;7.82;;
20375;SDS011;10347;51.828;6.466;2023-04-28T11:54:18;9.90;;;8.40;;
20375;SDS011;10347;51.828;6.466;2023-04-28T11:56:48;10.43;;;7.85;;
20375;SDS011;10347;51.828;6.466;2023-04-28T11:59:14;11.18;;;9.35;;
20375;SDS011;10347;51.828;6.466;2023-04-28T12:01:49;8.00;;;7.20;;
20375;SDS011;10347;51.828;6.466;2023-04-28T12:07:08;9.45;;;6.95;;
20375;SDS011;10347;51.828;6.466;2023-04-28T12:09:36;7.22;;;6.50;;
20375;SDS011;10347;51.828;6.466;2023-04-28T12:12:03;8.73;;;6.85;;
20375;SDS011;10347;51.828;6.466;2023-04-28T12:14:31;7.07;;;6.38;;
20375;SDS011;10347;51.828;6.466;2023-04-28T12:19:55;7.47;;;6.63;;
20375;SDS011;10347;51.828;6.466;2023-04-28T12:22:23;7.80;;;7.00;;
20375;SDS011;10347;51.828;6.466;2023-04-28T12:25:04;9.43;;;7.72;;
20375;SDS011;10347;51.828;6.466;2023-04-28T12:27:32;8.50;;;7.60;;
20375;SDS011;10347;51.828;6.466;2023-04-28T12:29:58;8.95;;;8.02;;
20375;SDS011;10347;51.828;6.466;2023-04-28T12:32:40;8.05;;;7.25;;
20375;SDS011;10347;51.828;6.466;2023-04-28T12:35:09;9.23;;;7.30;;
20375;SDS011;10347;51.828;6.466;2023-04-28T12:37:35;8.35;;;7.40;;
20375;SDS011;10347;51.828;6.466;2023-04-28T12:40:02;12.30;;;9.98;;
20375;SDS011;10347;51.828;6.466;2023-04-28T12:42:29;11.82;;;9.10;;
20375;SDS011;10347;51.828;6.466;2023-04-28T12:44:54;10.75;;;9.18;;
20375;SDS011;10347;51.828;6.466;2023-04-28T12:47:20;12.00;;;9.27;;
20375;SDS011;10347;51.828;6.466;2023-04-28T12:49:46;14.50;;;11.98;;
20375;SDS011;10347;51.828;6.466;2023-04-28T12:52:14;13.45;;;11.25;;
20375;SDS011;10347;51.828;6.466;2023-04-28T12:54:40;14.00;;;11.00;;
20375;SDS011;10347;51.828;6.466;2023-04-28T12:57:10;15.10;;;12.77;;
20375;SDS011;10347;51.828;6.466;2023-04-28T12:59:37;16.13;;;13.30;;
20375;SDS011;10347;51.828;6.466;2023-04-28T13:02:03;18.45;;;14.70;;
20375;SDS011;10347;51.828;6.466;2023-04-28T13:04:29;18.48;;;14.77;;
20375;SDS011;10347;51.828;6.466;2023-04-28T13:06:55;18.65;;;15.13;;
20375;SDS011;10347;51.828;6.466;2023-04-28T13:09:22;17.73;;;13.90;;
20375;SDS011;10347;51.828;6.466;2023-04-28T13:11:49;19.77;;;15.23;;
20375;SDS011;10347;51.828;6.466;2023-04-28T13:14:14;18.90;;;14.85;;
20375;SDS011;10347;51.828;6.466;2023-04-28T13:16:40;17.55;;;13.77;;
20375;SDS011;10347;51.828;6.466;2023-04-28T13:19:06;18.65;;;14.68;;
20375;SDS011;10347;51.828;6.466;2023-04-28T13:21:34;19.05;;;15.02;;
20375;SDS011;10347;51.828;6.466;2023-04-28T13:24:01;19.05;;;13.98;;
20375;SDS011;10347;51.828;6.466;2023-04-28T13:26:28;22.27;;;15.48;;
20375;SDS011;10347;51.828;6.466;2023-04-28T13:28:54;20.10;;;15.70;;
20375;SDS011;10347;51.828;6.466;2023-04-28T13:31:20;19.08;;;14.82;;
20375;SDS011;10347;51.828;6.466;2023-04-28T13:33:45;19.63;;;14.82;;
20375;SDS011;10347;51.828;6.466;2023-04-28T13:36:11;19.55;;;16.25;;
20375;SDS011;10347;51.828;6.466;2023-04-28T13:38:37;18.98;;;15.55;;
20375;SDS011;10347;51.828;6.466;2023-04-28T13:41:03;18.50;;;14.80;;
20375;SDS011;10347;51.828;6.466;2023-04-28T13:43:28;18.38;;;14.60;;
20375;SDS011;10347;51.828;6.466;2023-04-28T13:45:55;17.83;;;14.32;;
20375;SDS011;10347;51.828;6.466;2023-04-28T13:48:21;16.85;;;13.77;;
20375;SDS011;10347;51.828;6.466;2023-04-28T13:50:46;19.20;;;11.73;;
20375;SDS011;10347;51.828;6.466;2023-04-28T13:53:12;16.05;;;12.95;;
20375;SDS011;10347;51.828;6.466;2023-04-28T13:55:37;16.40;;;12.02;;
20375;SDS011;10347;51.828;6.466;2023-04-28T13:58:03;13.48;;;11.35;;
20375;SDS011;10347;51.828;6.466;2023-04-28T14:00:30;14.48;;;12.05;;
20375;SDS011;10347;51.828;6.466;2023-04-28T14:02:57;15.50;;;12.50;;
20375;SDS011;10347;51.828;6.466;2023-04-28T14:05:23;14.27;;;11.35;;
20375;SDS011;10347;51.828;6.466;2023-04-28T14:07:49;14.00;;;11.18;;
20375;SDS011;10347;51.828;6.466;2023-04-28T14:10:16;15.07;;;10.32;;
20375;SDS011;10347;51.828;6.466;2023-04-28T14:12:41;11.15;;;7.90;;
20375;SDS011;10347;51.828;6.466;2023-04-28T14:15:07;8.05;;;7.25;;
20375;SDS011;10347;51.828;6.466;2023-04-28T14:17:33;7.93;;;7.13;;
20375;SDS011;10347;51.828;6.466;2023-04-28T14:20:02;8.25;;;6.43;;
20375;SDS011;10347;51.828;6.466;2023-04-28T14:22:28;7.18;;;6.47;;
20375;SDS011;10347;51.828;6.466;2023-04-28T14:24:54;5.60;;;5.00;;
20375;SDS011;10347;51.828;6.466;2023-04-28T14:27:20;6.38;;;5.70;;
20375;SDS011;10347;51.828;6.466;2023-04-28T14:29:46;5.20;;;4.80;;
20375;SDS011;10347;51.828;6.466;2023-04-28T14:32:12;5.97;;;4.63;;
20375;SDS011;10347;51.828;6.466;2023-04-28T14:34:40;8.88;;;5.32;;
20375;SDS011;10347;51.828;6.466;2023-04-28T14:37:06;5.07;;;4.57;;
20375;SDS011;10347;51.828;6.466;2023-04-28T14:39:31;5.20;;;4.70;;
20375;SDS011;10347;51.828;6.466;2023-04-28T14:41:57;5.97;;;5.30;;
20375;SDS011;10347;51.828;6.466;2023-04-28T14:44:22;5.60;;;5.10;;
20375;SDS011;10347;51.828;6.466;2023-04-28T14:46:48;5.60;;;5.10;;
20375;SDS011;10347;51.828;6.466;2023-04-28T14:49:13;6.57;;;5.80;;
20375;SDS011;10347;51.828;6.466;2023-04-28T14:51:39;6.75;;;5.75;;
20375;SDS011;10347;51.828;6.466;2023-04-28T14:54:05;5.88;;;5.28;;
20375;SDS011;10347;51.828;6.466;2023-04-28T14:56:33;6.30;;;5.68;;
20375;SDS011;10347;51.828;6.466;2023-04-28T14:58:58;5.13;;;4.53;;
20375;SDS011;10347;51.828;6.466;2023-04-28T15:01:24;6.05;;;5.45;;
20375;SDS011;10347;51.828;6.466;2023-04-28T15:03:50;6.32;;;5.05;;
20375;SDS011;10347;51.828;6.466;2023-04-28T15:06:15;5.78;;;5.03;;
20375;SDS011;10347;51.828;6.466;2023-04-28T15:08:41;5.20;;;4.72;;